sensor_id;sensor_type;location;lat;lon;timestamp;P1;durP1;ratioP1;P2;durP2;ratioP2
57321;SDS011;43159;51.006;18.224;2022-08-19T00:01:52;15.90;;;8.60;;
57321;SDS011;43159;51.006;18.224;2022-08-19T00:04:20;16.10;;;8.80;;
57321;SDS011;43159;51.006;18.224;2022-08-19T00:06:47;14.70;;;8.90;;
57321;SDS011;43159;51.006;18.224;2022-08-19T00:09:15;16.00;;;9.20;;
57321;SDS011;43159;51.006;18.224;2022-08-19T00:11:42;15.80;;;9.40;;
57321;SDS011;43159;51.006;18.224;2022-08-19T00:14:09;16.50;;;9.30;;
57321;SDS011;43159;51.006;18.224;2022-08-19T00:16:37;16.70;;;9.40;;
57321;SDS011;43159;51.006;18.224;2022-08-19T00:19:04;16.60;;;9.50;;
57321;SDS011;43159;51.006;18.224;2022-08-19T00:21:30;15.90;;;9.50;;
57321;SDS011;43159;51.006;18.224;2022-08-19T00:23:56;17.70;;;9.80;;
57321;SDS011;43159;51.006;18.224;2022-08-19T00:26:23;17.60;;;10.30;;
57321;SDS011;43159;51.006;18.224;2022-08-19T00:28:50;16.30;;;9.80;;
57321;SDS011;43159;51.006;18.224;2022-08-19T00:31:15;15.90;;;9.80;;
57321;SDS011;43159;51.006;18.224;2022-08-19T00:33:41;18.40;;;10.10;;
57321;SDS011;43159;51.006;18.224;2022-08-19T00:36:08;16.70;;;10.20;;
57321;SDS011;43159;51.006;18.224;2022-08-19T00:38:37;17.10;;;9.80;;
57321;SDS011;43159;51.006;18.224;2022-08-19T00:41:08;18.10;;;10.60;;
57321;SDS011;43159;51.006;18.224;2022-08-19T00:43:35;16.20;;;9.60;;
57321;SDS011;43159;51.006;18.224;2022-08-19T00:46:01;17.40;;;10.30;;
57321;SDS011;43159;51.006;18.224;2022-08-19T00:48:29;16.70;;;10.40;;
57321;SDS011;43159;51.006;18.224;2022-08-19T00:50:56;18.20;;;10.50;;
57321;SDS011;43159;51.006;18.224;2022-08-19T00:53:23;18.30;;;10.30;;
57321;SDS011;43159;51.006;18.224;2022-08-19T00:55:52;17.80;;;10.70;;
57321;SDS011;43159;51.006;18.224;2022-08-19T00:58:21;17.10;;;10.80;;
57321;SDS011;43159;51.006;18.224;2022-08-19T01:00:48;16.90;;;10.50;;
57321;SDS011;43159;51.006;18.224;2022-08-19T01:03:15;18.80;;;11.00;;
57321;SDS011;43159;51.006;18.224;2022-08-19T01:05:43;16.90;;;11.30;;
57321;SDS011;43159;51.006;18.224;2022-08-19T01:08:10;17.80;;;11.00;;
57321;SDS011;43159;51.006;18.224;2022-08-19T01:10:37;19.40;;;11.50;;
57321;SDS011;43159;51.006;18.224;2022-08-19T01:13:05;18.20;;;10.90;;
57321;SDS011;43159;51.006;18.224;2022-08-19T01:15:38;19.40;;;11.30;;
57321;SDS011;43159;51.006;18.224;2022-08-19T01:18:08;17.70;;;11.50;;
57321;SDS011;43159;51.006;18.224;2022-08-19T01:20:35;18.80;;;11.50;;
57321;SDS011;43159;51.006;18.224;2022-08-19T01:23:01;19.00;;;12.00;;
57321;SDS011;43159;51.006;18.224;2022-08-19T01:25:29;19.40;;;12.30;;
57321;SDS011;43159;51.006;18.224;2022-08-19T01:27:57;18.80;;;12.20;;
57321;SDS011;43159;51.006;18.224;2022-08-19T01:30:27;18.70;;;12.00;;
57321;SDS011;43159;51.006;18.224;2022-08-19T01:32:56;17.50;;;11.60;;
57321;SDS011;43159;51.006;18.224;2022-08-19T01:35:23;17.80;;;11.70;;
57321;SDS011;43159;51.006;18.224;2022-08-19T01:37:51;17.50;;;11.90;;
57321;SDS011;43159;51.006;18.224;2022-08-19T01:40:20;17.40;;;11.30;;
57321;SDS011;43159;51.006;18.224;2022-08-19T01:42:48;19.90;;;11.70;;
57321;SDS011;43159;51.006;18.224;2022-08-19T01:45:15;19.90;;;11.80;;
57321;SDS011;43159;51.006;18.224;2022-08-19T01:47:41;16.30;;;11.70;;
57321;SDS011;43159;51.006;18.224;2022-08-19T01:50:08;20.10;;;12.20;;
57321;SDS011;43159;51.006;18.224;2022-08-19T01:52:35;18.50;;;12.10;;
57321;SDS011;43159;51.006;18.224;2022-08-19T01:55:02;19.90;;;12.40;;
57321;SDS011;43159;51.006;18.224;2022-08-19T01:57:29;18.90;;;11.90;;
57321;SDS011;43159;51.006;18.224;2022-08-19T01:59:55;20.20;;;12.30;;
57321;SDS011;43159;51.006;18.224;2022-08-19T02:02:21;19.60;;;12.10;;
57321;SDS011;43159;51.006;18.224;2022-08-19T02:04:47;17.70;;;11.80;;
57321;SDS011;43159;51.006;18.224;2022-08-19T02:07:13;19.70;;;12.30;;
57321;SDS011;43159;51.006;18.224;2022-08-19T02:09:38;21.30;;;12.70;;
57321;SDS011;43159;51.006;18.224;2022-08-19T02:12:04;19.20;;;12.60;;
57321;SDS011;43159;51.006;18.224;2022-08-19T02:14:33;18.90;;;12.80;;
57321;SDS011;43159;51.006;18.224;2022-08-19T02:16:59;21.10;;;12.80;;
57321;SDS011;43159;51.006;18.224;2022-08-19T02:19:25;21.30;;;13.40;;
57321;SDS011;43159;51.006;18.224;2022-08-19T02:21:50;19.30;;;12.80;;
57321;SDS011;43159;51.006;18.224;2022-08-19T02:24:16;22.00;;;12.80;;
57321;SDS011;43159;51.006;18.224;2022-08-19T02:26:42;19.90;;;12.70;;
57321;SDS011;43159;51.006;18.224;2022-08-19T02:29:07;19.90;;;13.00;;
57321;SDS011;43159;51.006;18.224;2022-08-19T02:31:33;19.90;;;13.10;;
57321;SDS011;43159;51.006;18.224;2022-08-19T02:33:58;19.10;;;12.60;;
57321;SDS011;43159;51.006;18.224;2022-08-19T02:36:24;19.70;;;12.70;;
57321;SDS011;43159;51.006;18.224;2022-08-19T02:38:50;18.90;;;13.20;;
57321;SDS011;43159;51.006;18.224;2022-08-19T02:41:18;19.80;;;13.40;;
57321;SDS011;43159;51.006;18.224;2022-08-19T02:43:47;19.50;;;13.10;;
57321;SDS011;43159;51.006;18.224;2022-08-19T02:46:18;21.40;;;13.30;;
57321;SDS011;43159;51.006;18.224;2022-08-19T02:48:48;20.90;;;13.90;;
57321;SDS011;43159;51.006;18.224;2022-08-19T02:51:15;20.40;;;13.40;;
57321;SDS011;43159;51.006;18.224;2022-08-19T02:53:45;20.10;;;13.30;;
57321;SDS011;43159;51.006;18.224;2022-08-19T02:56:11;21.60;;;14.10;;
57321;SDS011;43159;51.006;18.224;2022-08-19T02:58:37;20.10;;;13.80;;
57321;SDS011;43159;51.006;18.224;2022-08-19T03:01:02;20.70;;;14.00;;
57321;SDS011;43159;51.006;18.224;2022-08-19T03:03:28;19.20;;;13.40;;
57321;SDS011;43159;51.006;18.224;2022-08-19T03:06:08;22.70;;;14.00;;
57321;SDS011;43159;51.006;18.224;2022-08-19T03:08:37;21.40;;;14.00;;
57321;SDS011;43159;51.006;18.224;2022-08-19T03:11:04;20.90;;;14.10;;
57321;SDS011;43159;51.006;18.224;2022-08-19T03:13:30;20.50;;;13.90;;
57321;SDS011;43159;51.006;18.224;2022-08-19T03:15:55;20.60;;;14.20;;
57321;SDS011;43159;51.006;18.224;2022-08-19T03:18:21;20.10;;;14.40;;
57321;SDS011;43159;51.006;18.224;2022-08-19T03:20:47;21.60;;;14.30;;
57321;SDS011;43159;51.006;18.224;2022-08-19T03:23:14;21.80;;;13.50;;
57321;SDS011;43159;51.006;18.224;2022-08-19T03:25:42;21.60;;;15.00;;
57321;SDS011;43159;51.006;18.224;2022-08-19T03:28:10;21.40;;;14.40;;
57321;SDS011;43159;51.006;18.224;2022-08-19T03:30:37;22.90;;;14.60;;
57321;SDS011;43159;51.006;18.224;2022-08-19T03:33:05;22.60;;;14.50;;
57321;SDS011;43159;51.006;18.224;2022-08-19T03:35:31;22.00;;;14.10;;
57321;SDS011;43159;51.006;18.224;2022-08-19T03:37:57;22.10;;;13.90;;
57321;SDS011;43159;51.006;18.224;2022-08-19T03:40:24;21.00;;;14.90;;
57321;SDS011;43159;51.006;18.224;2022-08-19T03:42:50;22.60;;;14.90;;
57321;SDS011;43159;51.006;18.224;2022-08-19T03:45:16;21.40;;;14.40;;
57321;SDS011;43159;51.006;18.224;2022-08-19T03:47:42;24.30;;;14.40;;
57321;SDS011;43159;51.006;18.224;2022-08-19T03:50:07;21.20;;;14.00;;
57321;SDS011;43159;51.006;18.224;2022-08-19T03:52:34;20.70;;;13.90;;
57321;SDS011;43159;51.006;18.224;2022-08-19T03:55:01;22.40;;;14.10;;
57321;SDS011;43159;51.006;18.224;2022-08-19T03:57:28;20.50;;;13.80;;
57321;SDS011;43159;51.006;18.224;2022-08-19T03:59:53;22.70;;;14.20;;
57321;SDS011;43159;51.006;18.224;2022-08-19T04:02:19;22.70;;;15.00;;
57321;SDS011;43159;51.006;18.224;2022-08-19T04:04:45;21.30;;;14.00;;
57321;SDS011;43159;51.006;18.224;2022-08-19T04:07:12;24.00;;;15.00;;
57321;SDS011;43159;51.006;18.224;2022-08-19T04:09:40;22.50;;;14.90;;
57321;SDS011;43159;51.006;18.224;2022-08-19T04:12:06;20.80;;;14.80;;
57321;SDS011;43159;51.006;18.224;2022-08-19T04:14:32;25.40;;;15.00;;
57321;SDS011;43159;51.006;18.224;2022-08-19T04:16:59;23.80;;;14.50;;
57321;SDS011;43159;51.006;18.224;2022-08-19T04:19:26;23.20;;;14.90;;
57321;SDS011;43159;51.006;18.224;2022-08-19T04:21:54;22.70;;;14.70;;
57321;SDS011;43159;51.006;18.224;2022-08-19T04:24:20;24.30;;;14.90;;
57321;SDS011;43159;51.006;18.224;2022-08-19T04:26:46;23.20;;;15.30;;
57321;SDS011;43159;51.006;18.224;2022-08-19T04:29:23;24.20;;;15.40;;
57321;SDS011;43159;51.006;18.224;2022-08-19T04:31:50;22.80;;;14.60;;
57321;SDS011;43159;51.006;18.224;2022-08-19T04:34:18;21.30;;;14.30;;
57321;SDS011;43159;51.006;18.224;2022-08-19T04:36:48;22.00;;;13.80;;
57321;SDS011;43159;51.006;18.224;2022-08-19T04:39:18;20.30;;;13.60;;
57321;SDS011;43159;51.006;18.224;2022-08-19T04:41:45;21.50;;;13.30;;
57321;SDS011;43159;51.006;18.224;2022-08-19T04:44:31;20.60;;;12.90;;
57321;SDS011;43159;51.006;18.224;2022-08-19T04:46:57;20.00;;;12.40;;
57321;SDS011;43159;51.006;18.224;2022-08-19T04:49:23;19.40;;;12.80;;
57321;SDS011;43159;51.006;18.224;2022-08-19T04:51:49;20.90;;;12.50;;
57321;SDS011;43159;51.006;18.224;2022-08-19T04:54:18;24.90;;;12.60;;
57321;SDS011;43159;51.006;18.224;2022-08-19T04:56:48;18.10;;;11.00;;
57321;SDS011;43159;51.006;18.224;2022-08-19T04:59:15;18.90;;;11.20;;
57321;SDS011;43159;51.006;18.224;2022-08-19T05:01:42;18.10;;;11.40;;
57321;SDS011;43159;51.006;18.224;2022-08-19T05:04:08;17.30;;;11.10;;
57321;SDS011;43159;51.006;18.224;2022-08-19T05:06:34;17.60;;;11.30;;
57321;SDS011;43159;51.006;18.224;2022-08-19T05:09:02;19.80;;;11.20;;
57321;SDS011;43159;51.006;18.224;2022-08-19T05:11:30;20.40;;;10.80;;
57321;SDS011;43159;51.006;18.224;2022-08-19T05:13:57;17.40;;;10.50;;
57321;SDS011;43159;51.006;18.224;2022-08-19T05:16:24;17.80;;;10.50;;
57321;SDS011;43159;51.006;18.224;2022-08-19T05:18:51;15.80;;;10.10;;
57321;SDS011;43159;51.006;18.224;2022-08-19T05:21:36;17.80;;;10.10;;
57321;SDS011;43159;51.006;18.224;2022-08-19T05:24:21;17.00;;;10.30;;
57321;SDS011;43159;51.006;18.224;2022-08-19T05:26:48;17.70;;;10.10;;
57321;SDS011;43159;51.006;18.224;2022-08-19T05:29:16;17.80;;;9.90;;
57321;SDS011;43159;51.006;18.224;2022-08-19T05:31:44;16.20;;;10.10;;
57321;SDS011;43159;51.006;18.224;2022-08-19T05:34:10;17.10;;;9.70;;
57321;SDS011;43159;51.006;18.224;2022-08-19T05:36:37;17.70;;;10.10;;
57321;SDS011;43159;51.006;18.224;2022-08-19T05:39:05;17.40;;;9.60;;
57321;SDS011;43159;51.006;18.224;2022-08-19T05:41:49;15.60;;;9.70;;
57321;SDS011;43159;51.006;18.224;2022-08-19T05:44:18;17.70;;;9.50;;
57321;SDS011;43159;51.006;18.224;2022-08-19T05:46:45;17.00;;;9.50;;
57321;SDS011;43159;51.006;18.224;2022-08-19T05:49:18;16.40;;;9.60;;
57321;SDS011;43159;51.006;18.224;2022-08-19T05:51:46;16.60;;;9.70;;
57321;SDS011;43159;51.006;18.224;2022-08-19T05:54:12;18.10;;;9.60;;
57321;SDS011;43159;51.006;18.224;2022-08-19T05:56:39;16.90;;;9.30;;
57321;SDS011;43159;51.006;18.224;2022-08-19T05:59:06;16.90;;;9.70;;
57321;SDS011;43159;51.006;18.224;2022-08-19T06:01:35;17.50;;;9.60;;
57321;SDS011;43159;51.006;18.224;2022-08-19T06:04:02;17.20;;;8.70;;
57321;SDS011;43159;51.006;18.224;2022-08-19T06:06:29;16.80;;;9.40;;
57321;SDS011;43159;51.006;18.224;2022-08-19T06:08:54;15.40;;;9.50;;
57321;SDS011;43159;51.006;18.224;2022-08-19T06:11:21;17.40;;;9.20;;
57321;SDS011;43159;51.006;18.224;2022-08-19T06:13:50;18.20;;;9.40;;
57321;SDS011;43159;51.006;18.224;2022-08-19T06:16:18;16.20;;;9.30;;
57321;SDS011;43159;51.006;18.224;2022-08-19T06:18:51;16.70;;;9.10;;
57321;SDS011;43159;51.006;18.224;2022-08-19T06:21:26;16.00;;;9.30;;
57321;SDS011;43159;51.006;18.224;2022-08-19T06:23:53;16.40;;;9.40;;
57321;SDS011;43159;51.006;18.224;2022-08-19T06:26:20;16.20;;;9.10;;
57321;SDS011;43159;51.006;18.224;2022-08-19T06:28:46;17.80;;;8.80;;
57321;SDS011;43159;51.006;18.224;2022-08-19T06:31:17;17.90;;;8.60;;
57321;SDS011;43159;51.006;18.224;2022-08-19T06:33:48;18.30;;;8.70;;
57321;SDS011;43159;51.006;18.224;2022-08-19T06:36:22;15.70;;;8.10;;
57321;SDS011;43159;51.006;18.224;2022-08-19T06:38:53;14.10;;;8.30;;
57321;SDS011;43159;51.006;18.224;2022-08-19T06:41:19;17.60;;;8.60;;
57321;SDS011;43159;51.006;18.224;2022-08-19T06:43:45;15.30;;;8.40;;
57321;SDS011;43159;51.006;18.224;2022-08-19T06:46:12;15.20;;;8.20;;
57321;SDS011;43159;51.006;18.224;2022-08-19T06:48:39;14.70;;;7.80;;
57321;SDS011;43159;51.006;18.224;2022-08-19T06:51:05;13.90;;;7.20;;
57321;SDS011;43159;51.006;18.224;2022-08-19T06:53:31;16.70;;;7.40;;
57321;SDS011;43159;51.006;18.224;2022-08-19T06:55:57;15.10;;;7.50;;
57321;SDS011;43159;51.006;18.224;2022-08-19T06:58:25;14.10;;;7.80;;
57321;SDS011;43159;51.006;18.224;2022-08-19T07:00:51;16.60;;;9.10;;
57321;SDS011;43159;51.006;18.224;2022-08-19T07:03:17;15.70;;;7.50;;
57321;SDS011;43159;51.006;18.224;2022-08-19T07:05:42;16.30;;;7.40;;
57321;SDS011;43159;51.006;18.224;2022-08-19T07:08:08;16.70;;;7.40;;
57321;SDS011;43159;51.006;18.224;2022-08-19T07:10:35;15.50;;;7.60;;
57321;SDS011;43159;51.006;18.224;2022-08-19T07:13:02;16.40;;;7.30;;
57321;SDS011;43159;51.006;18.224;2022-08-19T07:15:29;15.00;;;7.90;;
57321;SDS011;43159;51.006;18.224;2022-08-19T07:17:55;13.80;;;7.40;;
57321;SDS011;43159;51.006;18.224;2022-08-19T07:20:20;13.90;;;7.50;;
57321;SDS011;43159;51.006;18.224;2022-08-19T07:22:45;16.90;;;7.50;;
57321;SDS011;43159;51.006;18.224;2022-08-19T07:25:11;15.00;;;7.90;;
57321;SDS011;43159;51.006;18.224;2022-08-19T07:27:38;14.80;;;7.40;;
57321;SDS011;43159;51.006;18.224;2022-08-19T07:30:04;14.50;;;7.20;;
57321;SDS011;43159;51.006;18.224;2022-08-19T07:32:30;14.90;;;7.20;;
57321;SDS011;43159;51.006;18.224;2022-08-19T07:34:56;15.50;;;7.10;;
57321;SDS011;43159;51.006;18.224;2022-08-19T07:37:22;15.40;;;6.90;;
57321;SDS011;43159;51.006;18.224;2022-08-19T07:39:49;15.80;;;7.40;;
57321;SDS011;43159;51.006;18.224;2022-08-19T07:42:15;15.70;;;6.80;;
57321;SDS011;43159;51.006;18.224;2022-08-19T07:44:43;15.00;;;6.90;;
57321;SDS011;43159;51.006;18.224;2022-08-19T07:47:08;14.60;;;6.80;;
57321;SDS011;43159;51.006;18.224;2022-08-19T07:49:34;15.10;;;6.90;;
57321;SDS011;43159;51.006;18.224;2022-08-19T07:52:02;16.90;;;6.90;;
57321;SDS011;43159;51.006;18.224;2022-08-19T07:54:33;15.20;;;6.80;;
57321;SDS011;43159;51.006;18.224;2022-08-19T07:57:02;17.10;;;7.40;;
57321;SDS011;43159;51.006;18.224;2022-08-19T07:59:29;14.00;;;6.50;;
57321;SDS011;43159;51.006;18.224;2022-08-19T08:01:55;15.50;;;6.80;;
57321;SDS011;43159;51.006;18.224;2022-08-19T08:04:22;14.70;;;6.80;;
57321;SDS011;43159;51.006;18.224;2022-08-19T08:07:06;15.20;;;6.80;;
57321;SDS011;43159;51.006;18.224;2022-08-19T08:09:52;14.30;;;6.60;;
57321;SDS011;43159;51.006;18.224;2022-08-19T08:12:24;15.00;;;7.00;;
57321;SDS011;43159;51.006;18.224;2022-08-19T08:14:59;14.50;;;6.70;;
57321;SDS011;43159;51.006;18.224;2022-08-19T08:17:29;15.60;;;7.20;;
57321;SDS011;43159;51.006;18.224;2022-08-19T08:19:56;16.60;;;7.20;;
57321;SDS011;43159;51.006;18.224;2022-08-19T08:22:22;17.10;;;7.00;;
57321;SDS011;43159;51.006;18.224;2022-08-19T08:25:09;14.50;;;6.80;;
57321;SDS011;43159;51.006;18.224;2022-08-19T08:27:44;16.10;;;6.60;;
57321;SDS011;43159;51.006;18.224;2022-08-19T08:30:18;13.60;;;6.70;;
57321;SDS011;43159;51.006;18.224;2022-08-19T08:32:45;17.40;;;6.60;;
57321;SDS011;43159;51.006;18.224;2022-08-19T08:35:13;15.90;;;6.60;;
57321;SDS011;43159;51.006;18.224;2022-08-19T08:37:40;16.40;;;6.70;;
57321;SDS011;43159;51.006;18.224;2022-08-19T08:40:18;17.90;;;7.30;;
57321;SDS011;43159;51.006;18.224;2022-08-19T08:43:01;20.20;;;6.90;;
57321;SDS011;43159;51.006;18.224;2022-08-19T08:45:32;15.70;;;6.70;;
57321;SDS011;43159;51.006;18.224;2022-08-19T08:48:00;16.60;;;6.60;;
57321;SDS011;43159;51.006;18.224;2022-08-19T08:50:32;16.90;;;6.50;;
57321;SDS011;43159;51.006;18.224;2022-08-19T08:53:03;17.20;;;6.70;;
57321;SDS011;43159;51.006;18.224;2022-08-19T08:55:31;16.70;;;7.10;;
57321;SDS011;43159;51.006;18.224;2022-08-19T08:58:04;20.40;;;6.70;;
57321;SDS011;43159;51.006;18.224;2022-08-19T09:00:34;15.70;;;6.50;;
57321;SDS011;43159;51.006;18.224;2022-08-19T09:03:03;15.70;;;6.10;;
57321;SDS011;43159;51.006;18.224;2022-08-19T09:05:44;16.40;;;6.00;;
57321;SDS011;43159;51.006;18.224;2022-08-19T09:10:52;17.60;;;5.90;;
57321;SDS011;43159;51.006;18.224;2022-08-19T09:16:19;16.20;;;6.00;;
57321;SDS011;43159;51.006;18.224;2022-08-19T09:18:50;16.90;;;5.20;;
57321;SDS011;43159;51.006;18.224;2022-08-19T09:21:20;18.50;;;5.20;;
57321;SDS011;43159;51.006;18.224;2022-08-19T09:23:50;17.40;;;5.30;;
57321;SDS011;43159;51.006;18.224;2022-08-19T09:26:17;16.30;;;5.10;;
57321;SDS011;43159;51.006;18.224;2022-08-19T09:28:46;17.90;;;5.20;;
57321;SDS011;43159;51.006;18.224;2022-08-19T09:31:13;15.80;;;5.90;;
57321;SDS011;43159;51.006;18.224;2022-08-19T09:33:41;17.40;;;5.90;;
57321;SDS011;43159;51.006;18.224;2022-08-19T09:36:10;15.60;;;6.10;;
57321;SDS011;43159;51.006;18.224;2022-08-19T09:38:37;15.80;;;5.70;;
57321;SDS011;43159;51.006;18.224;2022-08-19T09:41:08;18.40;;;6.00;;
57321;SDS011;43159;51.006;18.224;2022-08-19T09:43:37;17.10;;;5.50;;
57321;SDS011;43159;51.006;18.224;2022-08-19T09:46:03;17.80;;;5.80;;
57321;SDS011;43159;51.006;18.224;2022-08-19T09:48:37;15.10;;;5.70;;
57321;SDS011;43159;51.006;18.224;2022-08-19T09:51:10;16.30;;;5.40;;
57321;SDS011;43159;51.006;18.224;2022-08-19T09:53:38;19.50;;;6.50;;
57321;SDS011;43159;51.006;18.224;2022-08-19T09:56:04;16.50;;;5.50;;
57321;SDS011;43159;51.006;18.224;2022-08-19T09:58:31;15.20;;;5.90;;
57321;SDS011;43159;51.006;18.224;2022-08-19T10:00:57;15.60;;;6.00;;
57321;SDS011;43159;51.006;18.224;2022-08-19T10:03:25;17.50;;;5.90;;
57321;SDS011;43159;51.006;18.224;2022-08-19T10:05:51;17.50;;;5.60;;
57321;SDS011;43159;51.006;18.224;2022-08-19T10:08:17;16.80;;;6.20;;
57321;SDS011;43159;51.006;18.224;2022-08-19T10:10:45;19.50;;;6.20;;
57321;SDS011;43159;51.006;18.224;2022-08-19T10:13:11;18.50;;;6.10;;
57321;SDS011;43159;51.006;18.224;2022-08-19T10:15:37;16.00;;;6.10;;
57321;SDS011;43159;51.006;18.224;2022-08-19T10:18:06;17.20;;;5.90;;
57321;SDS011;43159;51.006;18.224;2022-08-19T10:20:33;18.40;;;6.00;;
57321;SDS011;43159;51.006;18.224;2022-08-19T10:23:01;17.10;;;5.90;;
57321;SDS011;43159;51.006;18.224;2022-08-19T10:25:28;17.60;;;5.90;;
57321;SDS011;43159;51.006;18.224;2022-08-19T10:27:54;16.70;;;6.00;;
57321;SDS011;43159;51.006;18.224;2022-08-19T10:30:20;17.10;;;5.30;;
57321;SDS011;43159;51.006;18.224;2022-08-19T10:32:46;15.40;;;5.80;;
57321;SDS011;43159;51.006;18.224;2022-08-19T10:35:12;14.70;;;5.50;;
57321;SDS011;43159;51.006;18.224;2022-08-19T10:37:39;17.60;;;5.30;;
57321;SDS011;43159;51.006;18.224;2022-08-19T10:40:06;14.30;;;5.50;;
57321;SDS011;43159;51.006;18.224;2022-08-19T10:42:33;15.50;;;5.50;;
57321;SDS011;43159;51.006;18.224;2022-08-19T10:45:00;17.10;;;5.20;;
57321;SDS011;43159;51.006;18.224;2022-08-19T10:47:26;19.00;;;5.80;;
57321;SDS011;43159;51.006;18.224;2022-08-19T10:49:52;17.30;;;5.70;;
57321;SDS011;43159;51.006;18.224;2022-08-19T10:52:42;17.80;;;5.10;;
57321;SDS011;43159;51.006;18.224;2022-08-19T10:55:09;18.50;;;5.10;;
57321;SDS011;43159;51.006;18.224;2022-08-19T10:57:53;15.40;;;5.20;;
57321;SDS011;43159;51.006;18.224;2022-08-19T11:00:20;15.00;;;5.20;;
57321;SDS011;43159;51.006;18.224;2022-08-19T11:02:46;16.10;;;5.30;;
57321;SDS011;43159;51.006;18.224;2022-08-19T11:05:12;16.80;;;5.90;;
57321;SDS011;43159;51.006;18.224;2022-08-19T11:07:38;18.00;;;5.70;;
57321;SDS011;43159;51.006;18.224;2022-08-19T11:10:05;17.70;;;6.00;;
57321;SDS011;43159;51.006;18.224;2022-08-19T11:12:32;14.80;;;5.80;;
57321;SDS011;43159;51.006;18.224;2022-08-19T11:14:58;16.10;;;6.00;;
57321;SDS011;43159;51.006;18.224;2022-08-19T11:17:24;16.90;;;6.10;;
57321;SDS011;43159;51.006;18.224;2022-08-19T11:19:49;15.60;;;6.20;;
57321;SDS011;43159;51.006;18.224;2022-08-19T11:22:15;16.00;;;5.90;;
57321;SDS011;43159;51.006;18.224;2022-08-19T11:24:42;15.60;;;6.00;;
57321;SDS011;43159;51.006;18.224;2022-08-19T11:27:09;18.60;;;6.10;;
57321;SDS011;43159;51.006;18.224;2022-08-19T11:29:35;16.80;;;6.30;;
57321;SDS011;43159;51.006;18.224;2022-08-19T11:32:04;17.20;;;6.40;;
57321;SDS011;43159;51.006;18.224;2022-08-19T11:34:32;16.50;;;6.30;;
57321;SDS011;43159;51.006;18.224;2022-08-19T11:36:58;18.90;;;6.30;;
57321;SDS011;43159;51.006;18.224;2022-08-19T11:39:25;15.80;;;6.30;;
57321;SDS011;43159;51.006;18.224;2022-08-19T11:41:52;18.20;;;6.30;;
57321;SDS011;43159;51.006;18.224;2022-08-19T11:44:17;14.90;;;6.10;;
57321;SDS011;43159;51.006;18.224;2022-08-19T11:46:43;15.80;;;6.00;;
57321;SDS011;43159;51.006;18.224;2022-08-19T11:49:16;16.10;;;6.60;;
57321;SDS011;43159;51.006;18.224;2022-08-19T11:51:44;18.60;;;6.60;;
57321;SDS011;43159;51.006;18.224;2022-08-19T11:54:10;16.00;;;6.10;;
57321;SDS011;43159;51.006;18.224;2022-08-19T11:56:37;15.50;;;7.00;;
57321;SDS011;43159;51.006;18.224;2022-08-19T11:59:04;17.50;;;7.00;;
57321;SDS011;43159;51.006;18.224;2022-08-19T12:01:30;17.40;;;6.50;;
57321;SDS011;43159;51.006;18.224;2022-08-19T12:03:56;18.10;;;7.10;;
57321;SDS011;43159;51.006;18.224;2022-08-19T12:06:23;15.80;;;6.40;;
57321;SDS011;43159;51.006;18.224;2022-08-19T12:08:54;17.90;;;7.10;;
57321;SDS011;43159;51.006;18.224;2022-08-19T12:11:24;19.50;;;7.20;;
57321;SDS011;43159;51.006;18.224;2022-08-19T12:13:50;17.20;;;6.90;;
57321;SDS011;43159;51.006;18.224;2022-08-19T12:16:18;14.90;;;6.70;;
57321;SDS011;43159;51.006;18.224;2022-08-19T12:18:45;15.30;;;6.50;;
57321;SDS011;43159;51.006;18.224;2022-08-19T12:21:12;17.20;;;7.10;;
57321;SDS011;43159;51.006;18.224;2022-08-19T12:23:39;17.50;;;7.10;;
57321;SDS011;43159;51.006;18.224;2022-08-19T12:26:05;22.70;;;7.20;;
57321;SDS011;43159;51.006;18.224;2022-08-19T12:28:31;18.00;;;7.10;;
57321;SDS011;43159;51.006;18.224;2022-08-19T12:30:57;16.80;;;6.60;;
57321;SDS011;43159;51.006;18.224;2022-08-19T12:33:23;18.50;;;7.30;;
57321;SDS011;43159;51.006;18.224;2022-08-19T12:35:51;16.90;;;6.90;;
57321;SDS011;43159;51.006;18.224;2022-08-19T12:38:17;15.20;;;6.60;;
57321;SDS011;43159;51.006;18.224;2022-08-19T12:40:46;15.60;;;6.50;;
57321;SDS011;43159;51.006;18.224;2022-08-19T12:43:13;17.20;;;7.00;;
57321;SDS011;43159;51.006;18.224;2022-08-19T12:45:41;15.90;;;6.50;;
57321;SDS011;43159;51.006;18.224;2022-08-19T12:48:08;15.40;;;7.00;;
57321;SDS011;43159;51.006;18.224;2022-08-19T12:50:34;15.50;;;6.90;;
57321;SDS011;43159;51.006;18.224;2022-08-19T12:53:00;16.50;;;6.80;;
57321;SDS011;43159;51.006;18.224;2022-08-19T12:55:25;15.80;;;6.90;;
57321;SDS011;43159;51.006;18.224;2022-08-19T12:57:53;16.00;;;7.20;;
57321;SDS011;43159;51.006;18.224;2022-08-19T13:00:19;14.90;;;7.00;;
57321;SDS011;43159;51.006;18.224;2022-08-19T13:02:47;16.40;;;6.70;;
57321;SDS011;43159;51.006;18.224;2022-08-19T13:05:19;19.60;;;7.00;;
57321;SDS011;43159;51.006;18.224;2022-08-19T13:07:48;15.10;;;6.80;;
57321;SDS011;43159;51.006;18.224;2022-08-19T13:10:15;14.10;;;6.70;;
57321;SDS011;43159;51.006;18.224;2022-08-19T13:12:43;15.70;;;6.80;;
57321;SDS011;43159;51.006;18.224;2022-08-19T13:15:10;15.00;;;6.50;;
57321;SDS011;43159;51.006;18.224;2022-08-19T13:17:36;14.40;;;6.60;;
57321;SDS011;43159;51.006;18.224;2022-08-19T13:20:03;15.80;;;6.60;;
57321;SDS011;43159;51.006;18.224;2022-08-19T13:22:31;22.90;;;6.70;;
57321;SDS011;43159;51.006;18.224;2022-08-19T13:24:56;14.90;;;6.20;;
57321;SDS011;43159;51.006;18.224;2022-08-19T13:27:22;15.50;;;6.30;;
57321;SDS011;43159;51.006;18.224;2022-08-19T13:29:47;14.30;;;6.60;;
57321;SDS011;43159;51.006;18.224;2022-08-19T13:32:32;16.20;;;6.60;;
57321;SDS011;43159;51.006;18.224;2022-08-19T13:35:17;17.30;;;6.90;;
57321;SDS011;43159;51.006;18.224;2022-08-19T13:37:43;17.20;;;6.30;;
57321;SDS011;43159;51.006;18.224;2022-08-19T13:40:14;16.80;;;6.70;;
57321;SDS011;43159;51.006;18.224;2022-08-19T13:45:12;16.70;;;6.60;;
57321;SDS011;43159;51.006;18.224;2022-08-19T13:47:40;15.40;;;6.80;;
57321;SDS011;43159;51.006;18.224;2022-08-19T13:50:08;16.10;;;6.80;;
57321;SDS011;43159;51.006;18.224;2022-08-19T13:52:38;16.40;;;6.40;;
57321;SDS011;43159;51.006;18.224;2022-08-19T13:55:05;21.10;;;7.00;;
57321;SDS011;43159;51.006;18.224;2022-08-19T13:57:31;15.10;;;6.40;;
57321;SDS011;43159;51.006;18.224;2022-08-19T13:59:57;15.30;;;6.80;;
57321;SDS011;43159;51.006;18.224;2022-08-19T14:02:23;15.10;;;6.20;;
57321;SDS011;43159;51.006;18.224;2022-08-19T14:04:49;15.60;;;6.60;;
57321;SDS011;43159;51.006;18.224;2022-08-19T14:07:15;15.80;;;6.30;;
57321;SDS011;43159;51.006;18.224;2022-08-19T14:09:41;15.20;;;6.70;;
57321;SDS011;43159;51.006;18.224;2022-08-19T14:12:06;18.30;;;7.00;;
57321;SDS011;43159;51.006;18.224;2022-08-19T14:14:36;17.60;;;6.50;;
57321;SDS011;43159;51.006;18.224;2022-08-19T14:17:06;19.80;;;6.60;;
57321;SDS011;43159;51.006;18.224;2022-08-19T14:19:33;16.20;;;6.60;;
57321;SDS011;43159;51.006;18.224;2022-08-19T14:21:58;15.50;;;6.60;;
57321;SDS011;43159;51.006;18.224;2022-08-19T14:24:24;15.30;;;6.60;;
57321;SDS011;43159;51.006;18.224;2022-08-19T14:26:50;16.70;;;7.00;;
57321;SDS011;43159;51.006;18.224;2022-08-19T14:29:15;16.00;;;6.80;;